Rushford, New York
Current Conditions -  °F | °C
As of 11:55 PM on Saturday 22 Nov 2014 (Local Time) from KOLE Reporting Station
Overcast Overcast  
Wind Chill: 31°   Ceiling: 3000
Heat Index: 37°   Visibility: 10mi
Dew Point: 37°   Wind: 9mph
Humidity: 100%   Direction: 220°SW
Pressure: 30.02"   Gusts: 16mph
Location:  42.39°N, 78.25°W
Report Text: KOLE 230455Z AUTO 22008G14KT 10SM OVC030 03/03 A3002 RMK AO2
Loading
Personal Weather Stations






























Interactive Weather Map New forecast layout! Learn more

10-Day Weather Forecast

Advertisements
Track Severe Weather on mobile